UAL546 TTPP-KEWR
Flight info
| Callsign | UAL546 |
|---|---|
| Flight time | N/A |
| Altitude | 34000 |
| Route | PERRY UG449 ANADA L467 GESSO Y354 DONQU Y185 RENAH Y355 NUCAR Y307 JAZZI DCT GARIC Q129 AARNN DCT QUART PHLBO4 |
| Aircraft | A320/M-SDE3FGHIRWY/LB1 |
Departure
| Time | 2026-04-28 16:43 |
|---|---|
| Airport | Piarco International Airport (TTPP) |
Arrival
| Time | N/A |
|---|---|
| Airport | Newark Liberty International Airport (KEWR) |
| Time | Latitude | Longitude | Altitude | Speed | Heading |
|---|---|---|---|---|---|
| 2026-04-28 16:30 | 10.60080 | -61.34021 | 17 ft | 0 kts | 151° |
| 2026-04-28 16:33 | 10.60100 | -61.34032 | 17 ft | 3 kts | 145° |
| 2026-04-28 16:33 | 10.60112 | -61.34045 | 17 ft | 3 kts | 109° |
| 2026-04-28 16:34 | 10.60119 | -61.34060 | 20 ft | 2 kts | 116° |
| 2026-04-28 16:34 | 10.60127 | -61.34076 | 17 ft | 2 kts | 116° |
| 2026-04-28 16:34 | 10.60129 | -61.34082 | 17 ft | 0 kts | 119° |
| 2026-04-28 16:34 | 10.60129 | -61.34081 | 17 ft | 0 kts | 117° |
| 2026-04-28 16:35 | 10.60128 | -61.34077 | 17 ft | 1 kts | 109° |
| 2026-04-28 16:35 | 10.60127 | -61.34074 | 17 ft | 0 kts | 103° |
| 2026-04-28 16:35 | 10.60126 | -61.34072 | 17 ft | 0 kts | 120° |
| 2026-04-28 16:35 | 10.60123 | -61.34072 | 17 ft | 0 kts | 150° |
| 2026-04-28 16:36 | 10.60121 | -61.34073 | 20 ft | 0 kts | 174° |
| 2026-04-28 16:36 | 10.60119 | -61.34076 | 20 ft | 1 kts | 210° |
| 2026-04-28 16:36 | 10.60120 | -61.34081 | 20 ft | 1 kts | 262° |
| 2026-04-28 16:36 | 10.60118 | -61.34096 | 20 ft | 3 kts | 264° |
| 2026-04-28 16:37 | 10.60113 | -61.34119 | 18 ft | 4 kts | 239° |
| 2026-04-28 16:37 | 10.60091 | -61.34151 | 17 ft | 6 kts | 236° |
| 2026-04-28 16:37 | 10.60057 | -61.34183 | 18 ft | 7 kts | 200° |
| 2026-04-28 16:38 | 10.59924 | -61.34196 | 17 ft | 14 kts | 180° |
| 2026-04-28 16:38 | 10.59824 | -61.34195 | 17 ft | 15 kts | 177° |
| 2026-04-28 16:38 | 10.59719 | -61.34199 | 17 ft | 15 kts | 219° |
| 2026-04-28 16:38 | 10.59709 | -61.34303 | 16 ft | 16 kts | 271° |
| 2026-04-28 16:39 | 10.59709 | -61.34419 | 17 ft | 17 kts | 265° |
| 2026-04-28 16:39 | 10.59672 | -61.34533 | 17 ft | 14 kts | 205° |
| 2026-04-28 16:39 | 10.59591 | -61.34527 | 16 ft | 12 kts | 176° |
| 2026-04-28 16:39 | 10.59499 | -61.34522 | 17 ft | 14 kts | 180° |
| 2026-04-28 16:40 | 10.59419 | -61.34558 | 17 ft | 12 kts | 259° |
| 2026-04-28 16:40 | 10.59409 | -61.34644 | 17 ft | 13 kts | 263° |
| 2026-04-28 16:40 | 10.59395 | -61.34740 | 17 ft | 14 kts | 252° |
| 2026-04-28 16:40 | 10.59363 | -61.34842 | 17 ft | 16 kts | 251° |
| 2026-04-28 16:41 | 10.59350 | -61.34958 | 17 ft | 17 kts | 268° |
| 2026-04-28 16:41 | 10.59350 | -61.35105 | 17 ft | 26 kts | 270° |
| 2026-04-28 16:41 | 10.59440 | -61.35188 | 18 ft | 20 kts | 14° |
| 2026-04-28 16:41 | 10.59532 | -61.35108 | 17 ft | 11 kts | 89° |
| 2026-04-28 16:42 | 10.59532 | -61.35105 | 16 ft | 0 kts | 89° |
| 2026-04-28 16:42 | 10.59532 | -61.35095 | 17 ft | 15 kts | 89° |
| 2026-04-28 16:42 | 10.59534 | -61.34691 | 18 ft | 96 kts | 90° |
| 2026-04-28 16:42 | 10.59535 | -61.33788 | 17 ft | 155 kts | 91° |
| 2026-04-28 16:43 | 10.59542 | -61.32538 | 160 ft | 189 kts | 91° |
| 2026-04-28 16:43 | 10.59532 | -61.31263 | 1167 ft | 174 kts | 91° |
| 2026-04-28 16:43 | 10.59511 | -61.30032 | 2097 ft | 173 kts | 92° |
| 2026-04-28 16:43 | 10.59487 | -61.28839 | 2947 ft | 169 kts | 92° |
| 2026-04-28 16:44 | 10.59448 | -61.27668 | 3586 ft | 165 kts | 93° |
| 2026-04-28 16:44 | 10.59376 | -61.26469 | 3980 ft | 175 kts | 95° |
| 2026-04-28 16:44 | 10.59265 | -61.25171 | 4228 ft | 193 kts | 94° |
| 2026-04-28 16:44 | 10.59542 | -61.23820 | 4705 ft | 201 kts | 60° |
| 2026-04-28 16:45 | 10.60532 | -61.22767 | 4928 ft | 219 kts | 27° |
| 2026-04-28 16:45 | 10.62059 | -61.22352 | 5165 ft | 236 kts | 357° |
| 2026-04-28 16:45 | 10.63630 | -61.22698 | 5783 ft | 242 kts | 334° |
| 2026-04-28 16:45 | 10.64973 | -61.23709 | 6438 ft | 235 kts | 307° |
| 2026-04-28 16:46 | 10.65737 | -61.25062 | 7335 ft | 225 kts | 298° |
| 2026-04-28 16:46 | 10.66729 | -61.26412 | 7422 ft | 253 kts | 316° |
| 2026-04-28 16:46 | 10.68063 | -61.27719 | 7488 ft | 283 kts | 312° |
| 2026-04-28 16:46 | 10.69420 | -61.29220 | 7939 ft | 285 kts | 312° |
| 2026-04-28 16:47 | 10.70757 | -61.30700 | 8637 ft | 284 kts | 312° |
| 2026-04-28 16:47 | 10.72098 | -61.32184 | 9340 ft | 287 kts | 312° |
| 2026-04-28 16:47 | 10.73451 | -61.33682 | 10045 ft | 288 kts | 312° |
| 2026-04-28 16:47 | 10.74807 | -61.35183 | 10748 ft | 288 kts | 312° |
| 2026-04-28 16:48 | 10.76276 | -61.36578 | 11451 ft | 288 kts | 321° |
| 2026-04-28 16:48 | 10.77898 | -61.37770 | 12159 ft | 287 kts | 326° |
| 2026-04-28 16:48 | 10.79576 | -61.38868 | 12857 ft | 286 kts | 327° |
| 2026-04-28 16:48 | 10.81264 | -61.39937 | 13557 ft | 284 kts | 327° |
| 2026-04-28 16:49 | 10.82926 | -61.40995 | 14263 ft | 280 kts | 327° |
| 2026-04-28 16:49 | 10.84551 | -61.42050 | 14959 ft | 275 kts | 326° |
| 2026-04-28 16:49 | 10.86139 | -61.43100 | 15657 ft | 268 kts | 326° |
| 2026-04-28 16:49 | 10.87679 | -61.44132 | 16169 ft | 270 kts | 326° |
| 2026-04-28 16:50 | 10.89251 | -61.45195 | 16643 ft | 272 kts | 326° |
| 2026-04-28 16:50 | 10.90832 | -61.46267 | 17101 ft | 275 kts | 326° |
| 2026-04-28 16:50 | 10.92478 | -61.47384 | 17176 ft | 294 kts | 326° |
| 2026-04-28 16:50 | 10.94241 | -61.48580 | 17184 ft | 314 kts | 326° |
| 2026-04-28 16:51 | 10.96098 | -61.49840 | 17187 ft | 323 kts | 326° |
| 2026-04-28 16:51 | 10.97976 | -61.51116 | 17187 ft | 326 kts | 326° |
| 2026-04-28 16:51 | 10.99864 | -61.52397 | 17187 ft | 326 kts | 326° |
| 2026-04-28 16:51 | 11.01757 | -61.53684 | 17187 ft | 326 kts | 326° |
| 2026-04-28 16:52 | 11.03623 | -61.54956 | 17187 ft | 327 kts | 326° |
| 2026-04-28 16:52 | 11.05508 | -61.56240 | 17380 ft | 325 kts | 326° |
| 2026-04-28 16:52 | 11.07406 | -61.57530 | 17704 ft | 331 kts | 326° |
| 2026-04-28 16:52 | 11.09351 | -61.58852 | 18031 ft | 339 kts | 326° |
| 2026-04-28 16:53 | 11.11336 | -61.60201 | 18362 ft | 347 kts | 326° |
| 2026-04-28 16:53 | 11.13366 | -61.61580 | 18685 ft | 355 kts | 326° |
| 2026-04-28 16:53 | 11.15444 | -61.62993 | 19017 ft | 362 kts | 326° |
| 2026-04-28 16:53 | 11.17564 | -61.64436 | 19348 ft | 370 kts | 326° |
| 2026-04-28 16:54 | 11.19728 | -61.65908 | 19676 ft | 377 kts | 326° |
| 2026-04-28 16:54 | 11.21929 | -61.67405 | 20003 ft | 384 kts | 326° |
| 2026-04-28 16:54 | 11.24174 | -61.68932 | 20332 ft | 391 kts | 326° |
| 2026-04-28 16:54 | 11.25681 | -61.69957 | 20549 ft | 396 kts | 326° |
| 2026-04-28 16:55 | 11.28749 | -61.72043 | 20982 ft | 404 kts | 326° |
| 2026-04-28 16:55 | 11.31109 | -61.73650 | 21313 ft | 410 kts | 326° |
| 2026-04-28 16:55 | 11.33501 | -61.75283 | 21642 ft | 415 kts | 326° |
| 2026-04-28 16:55 | 11.35917 | -61.76932 | 21965 ft | 420 kts | 326° |
| 2026-04-28 16:56 | 11.38356 | -61.78595 | 22294 ft | 423 kts | 326° |
| 2026-04-28 16:56 | 11.40816 | -61.80274 | 22620 ft | 427 kts | 326° |
| 2026-04-28 16:56 | 11.43296 | -61.81966 | 22947 ft | 430 kts | 326° |
| 2026-04-28 16:56 | 11.45789 | -61.83667 | 23269 ft | 433 kts | 326° |
| 2026-04-28 16:57 | 11.48305 | -61.85384 | 23600 ft | 435 kts | 326° |
| 2026-04-28 16:57 | 11.50796 | -61.87082 | 23922 ft | 437 kts | 326° |
| 2026-04-28 16:57 | 11.53340 | -61.88818 | 24249 ft | 439 kts | 326° |
| 2026-04-28 16:57 | 11.55890 | -61.90556 | 24573 ft | 441 kts | 326° |
| 2026-04-28 16:58 | 11.58446 | -61.92297 | 24899 ft | 442 kts | 326° |
| 2026-04-28 16:58 | 11.61010 | -61.94042 | 25228 ft | 444 kts | 326° |
| 2026-04-28 16:58 | 11.63579 | -61.95797 | 25556 ft | 445 kts | 326° |
| 2026-04-28 16:58 | 11.66155 | -61.97560 | 25877 ft | 446 kts | 326° |
| 2026-04-28 16:59 | 11.68740 | -61.99330 | 26203 ft | 448 kts | 326° |
| 2026-04-28 16:59 | 11.71329 | -62.01103 | 26528 ft | 449 kts | 326° |
| 2026-04-28 16:59 | 11.73891 | -62.02857 | 26849 ft | 450 kts | 326° |
| 2026-04-28 16:59 | 11.76500 | -62.04640 | 27175 ft | 451 kts | 326° |
| 2026-04-28 17:00 | 11.79113 | -62.06425 | 27500 ft | 451 kts | 326° |
| 2026-04-28 17:00 | 11.81730 | -62.08213 | 27826 ft | 452 kts | 326° |
| 2026-04-28 17:00 | 11.84347 | -62.10003 | 28145 ft | 453 kts | 326° |
| 2026-04-28 17:00 | 11.86969 | -62.11797 | 28473 ft | 453 kts | 326° |
| 2026-04-28 17:01 | 11.89587 | -62.13588 | 28802 ft | 453 kts | 326° |
| 2026-04-28 17:01 | 11.92175 | -62.15363 | 29122 ft | 454 kts | 326° |
| 2026-04-28 17:01 | 11.94800 | -62.17163 | 29447 ft | 454 kts | 326° |
| 2026-04-28 17:01 | 11.97425 | -62.18961 | 29762 ft | 454 kts | 326° |
| 2026-04-28 17:02 | 12.00062 | -62.20767 | 30018 ft | 456 kts | 326° |
| 2026-04-28 17:02 | 12.01814 | -62.21967 | 30177 ft | 457 kts | 326° |
| 2026-04-28 17:02 | 12.05331 | -62.24376 | 30505 ft | 459 kts | 326° |
| 2026-04-28 17:02 | 12.07990 | -62.26196 | 30761 ft | 460 kts | 326° |
| 2026-04-28 17:03 | 12.13318 | -62.29852 | 31260 ft | 462 kts | 326° |
| 2026-04-28 17:03 | 12.15990 | -62.31687 | 31512 ft | 462 kts | 326° |
| 2026-04-28 17:03 | 12.18658 | -62.33522 | 31761 ft | 463 kts | 326° |
| 2026-04-28 17:04 | 12.24031 | -62.37222 | 32017 ft | 469 kts | 326° |
| 2026-04-28 17:04 | 12.26748 | -62.39089 | 32016 ft | 472 kts | 326° |
| 2026-04-28 17:05 | 12.34922 | -62.44703 | 32016 ft | 473 kts | 326° |
| 2026-04-28 17:06 | 12.43132 | -62.50333 | 32016 ft | 473 kts | 326° |
| 2026-04-28 17:06 | 12.51294 | -62.55960 | 32016 ft | 473 kts | 326° |